createdAt,value
2019-02-27T00:00:16.194Z,19.13
2019-02-27T00:01:17.847Z,19.13
2019-02-27T00:02:17.154Z,19.11
2019-02-27T00:03:17.525Z,19.12
2019-02-27T00:04:16.123Z,19.12
2019-02-27T00:05:18.006Z,19.12
2019-02-27T00:06:17.407Z,19.08
2019-02-27T00:07:16.268Z,19.08
2019-02-27T00:08:16.676Z,19.09
2019-02-27T00:09:16.639Z,19.08
2019-02-27T00:10:16.459Z,19.08
2019-02-27T00:11:16.005Z,19.08
2019-02-27T00:12:20.174Z,19.06
2019-02-27T00:13:16.377Z,19.09
2019-02-27T00:14:16.758Z,19.08
2019-02-27T00:15:16.711Z,19.05
2019-02-27T00:16:16.142Z,19.05
2019-02-27T00:17:19.005Z,19.05
2019-02-27T00:18:17.170Z,19.05
2019-02-27T00:19:16.357Z,19.03
2019-02-27T00:20:16.352Z,19.06
2019-02-27T00:21:16.189Z,19.05
2019-02-27T00:22:18.611Z,19.02
2019-02-27T00:23:16.668Z,19.05
2019-02-27T00:24:16.408Z,19.03
2019-02-27T00:25:16.455Z,19.01
2019-02-27T00:26:16.609Z,19.02
2019-02-27T00:27:17.368Z,19.01
2019-02-27T00:28:17.930Z,19.01
2019-02-27T00:29:18.089Z,19.01
2019-02-27T00:30:16.593Z,19.02
2019-02-27T00:31:17.127Z,18.99
2019-02-27T00:32:19.417Z,19.02
2019-02-27T00:33:16.731Z,18.99
2019-02-27T00:34:17.088Z,18.98
2019-02-27T00:35:16.589Z,19.01
2019-02-27T00:36:17.355Z,18.97
2019-02-27T00:37:19.752Z,18.99
2019-02-27T00:38:16.203Z,18.97
2019-02-27T00:39:16.279Z,18.98
2019-02-27T00:40:16.524Z,18.98
2019-02-27T00:41:16.729Z,18.98
2019-02-27T00:42:23.237Z,18.97
2019-02-27T00:43:15.980Z,18.97
2019-02-27T00:44:16.423Z,18.95
2019-02-27T00:45:16.492Z,18.95
2019-02-27T00:46:16.139Z,18.95
2019-02-27T00:47:20.954Z,18.97
2019-02-27T00:48:16.786Z,18.95
2019-02-27T00:49:17.175Z,18.92
2019-02-27T00:50:16.650Z,18.92
2019-02-27T00:51:17.030Z,18.91
2019-02-27T00:52:19.039Z,18.92
2019-02-27T00:53:16.195Z,18.92
2019-02-27T00:54:16.541Z,18.92
2019-02-27T00:55:16.840Z,18.9
2019-02-27T00:56:16.289Z,18.9
2019-02-27T00:57:25.117Z,18.9
2019-02-27T00:58:16.629Z,18.92
2019-02-27T00:59:16.163Z,18.9
2019-02-27T01:00:16.352Z,18.9
2019-02-27T01:01:16.151Z,18.87
2019-02-27T01:02:21.056Z,18.9
2019-02-27T01:03:16.271Z,18.84
2019-02-27T01:04:16.370Z,18.87
2019-02-27T01:05:16.690Z,18.87
2019-02-27T01:06:17.110Z,18.87
2019-02-27T01:07:21.689Z,18.85
2019-02-27T01:08:16.497Z,18.85
2019-02-27T01:09:16.268Z,18.87
2019-02-27T01:10:16.309Z,18.85
2019-02-27T01:11:19.165Z,18.84
2019-02-27T01:12:15.934Z,18.85
2019-02-27T01:13:17.220Z,18.87
2019-02-27T01:14:16.747Z,18.83
2019-02-27T01:15:17.957Z,18.83
2019-02-27T01:16:18.069Z,18.85
2019-02-27T01:17:16.332Z,18.84
2019-02-27T01:18:16.097Z,18.83
2019-02-27T01:19:16.527Z,18.85
2019-02-27T01:20:18.117Z,18.85
2019-02-27T01:21:20.256Z,18.81
2019-02-27T01:22:16.465Z,18.81
2019-02-27T01:23:16.509Z,18.81
2019-02-27T01:24:18.249Z,18.81
2019-02-27T01:25:16.468Z,18.78
2019-02-27T01:26:16.515Z,18.78
2019-02-27T01:27:16.947Z,18.8
2019-02-27T01:28:16.572Z,18.8
2019-02-27T01:29:19.013Z,18.78
2019-02-27T01:30:17.157Z,18.8
2019-02-27T01:31:16.546Z,18.77
2019-02-27T01:32:16.463Z,18.81
2019-02-27T01:33:17.196Z,18.77
2019-02-27T01:34:16.975Z,18.78
2019-02-27T01:35:19.251Z,18.77
2019-02-27T01:36:17.078Z,18.77
2019-02-27T01:37:16.082Z,18.77
2019-02-27T01:38:16.380Z,18.75
2019-02-27T01:39:16.418Z,18.77
2019-02-27T01:40:18.892Z,18.75
2019-02-27T01:41:17.859Z,18.75
2019-02-27T01:42:16.202Z,18.75
2019-02-27T01:43:16.037Z,18.77
2019-02-27T01:44:16.363Z,18.77
2019-02-27T01:45:21.978Z,18.73
2019-02-27T01:46:16.187Z,18.73
2019-02-27T01:47:16.048Z,18.74
2019-02-27T01:48:16.604Z,18.74
2019-02-27T01:49:17.108Z,18.74
2019-02-27T01:50:16.155Z,18.73
2019-02-27T01:51:16.060Z,18.73
2019-02-27T01:52:16.555Z,18.73
2019-02-27T01:53:16.309Z,18.71
2019-02-27T01:54:16.123Z,18.71
2019-02-27T01:55:16.709Z,18.7
2019-02-27T01:56:17.017Z,18.71
2019-02-27T01:57:16.615Z,18.71
2019-02-27T01:58:16.508Z,18.73
2019-02-27T01:59:18.096Z,18.71
2019-02-27T02:00:16.123Z,18.7
2019-02-27T02:01:16.512Z,18.68
2019-02-27T02:02:16.012Z,18.7
2019-02-27T02:03:16.495Z,18.7
2019-02-27T02:04:21.023Z,18.73
2019-02-27T02:05:16.271Z,18.68
2019-02-27T02:06:17.710Z,18.68
2019-02-27T02:07:16.513Z,18.67
2019-02-27T02:08:16.080Z,18.67
2019-02-27T02:09:16.170Z,18.64
2019-02-27T02:10:16.353Z,18.66
2019-02-27T02:11:16.226Z,18.68
2019-02-27T02:12:17.272Z,18.64
2019-02-27T02:13:16.150Z,18.64
2019-02-27T02:14:15.936Z,18.67
2019-02-27T02:15:16.464Z,18.66
2019-02-27T02:16:17.401Z,18.66
2019-02-27T02:17:17.154Z,18.66
2019-02-27T02:18:16.559Z,18.67
2019-02-27T02:19:15.972Z,18.63
2019-02-27T02:20:16.182Z,18.64
2019-02-27T02:21:16.443Z,18.66
2019-02-27T02:22:17.850Z,18.63
2019-02-27T02:23:16.321Z,18.64
2019-02-27T02:24:16.375Z,18.66
2019-02-27T02:25:16.195Z,18.63
2019-02-27T02:26:16.308Z,18.63
2019-02-27T02:27:16.117Z,18.6
2019-02-27T02:28:16.243Z,18.62
2019-02-27T02:29:21.235Z,18.63
2019-02-27T02:30:16.391Z,18.62
2019-02-27T02:31:16.805Z,18.6
2019-02-27T02:32:18.504Z,18.6
2019-02-27T02:33:16.993Z,18.58
2019-02-27T02:34:16.533Z,18.58
2019-02-27T02:35:16.474Z,18.6
2019-02-27T02:36:17.158Z,18.56
2019-02-27T02:37:16.858Z,18.56
2019-02-27T02:38:17.400Z,18.56
2019-02-27T02:39:19.582Z,18.58
2019-02-27T02:40:16.170Z,18.57
2019-02-27T02:41:16.036Z,18.57
2019-02-27T02:42:16.835Z,18.56
2019-02-27T02:43:16.089Z,18.57
2019-02-27T02:44:22.388Z,18.57
2019-02-27T02:45:16.524Z,18.57
2019-02-27T02:46:17.391Z,18.56
2019-02-27T02:47:21.790Z,18.53
2019-02-27T02:48:16.277Z,18.54
2019-02-27T02:49:16.344Z,18.53
2019-02-27T02:50:18.775Z,18.56
2019-02-27T02:51:16.117Z,18.53
2019-02-27T02:52:16.165Z,18.56
2019-02-27T02:53:16.089Z,18.54
2019-02-27T02:54:16.523Z,18.51
2019-02-27T02:55:16.276Z,18.5
2019-02-27T02:56:16.339Z,18.53
2019-02-27T02:57:16.113Z,18.5
2019-02-27T02:58:16.498Z,18.53
2019-02-27T02:59:15.960Z,18.5
2019-02-27T03:00:16.269Z,18.53
2019-02-27T03:01:16.879Z,18.47
2019-02-27T03:02:16.452Z,18.5
2019-02-27T03:03:16.299Z,18.49
2019-02-27T03:04:16.476Z,18.5
2019-02-27T03:05:16.128Z,18.49
2019-02-27T03:06:16.124Z,18.5
2019-02-27T03:07:16.773Z,18.49
2019-02-27T03:08:21.262Z,18.49
2019-02-27T03:09:16.446Z,18.49
2019-02-27T03:10:15.962Z,18.46
2019-02-27T03:11:19.626Z,18.47
2019-02-27T03:12:16.379Z,18.47
2019-02-27T03:13:16.210Z,18.46
2019-02-27T03:14:18.837Z,18.46
2019-02-27T03:15:16.032Z,18.46
2019-02-27T03:16:16.341Z,18.44
2019-02-27T03:17:19.602Z,18.44
2019-02-27T03:18:16.323Z,18.46
2019-02-27T03:19:16.066Z,18.46
2019-02-27T03:20:18.012Z,18.46
2019-02-27T03:21:17.236Z,18.46
2019-02-27T03:22:16.120Z,18.47
2019-02-27T03:23:16.757Z,18.47
2019-02-27T03:24:17.221Z,18.44
2019-02-27T03:25:16.150Z,18.44
2019-02-27T03:26:18.088Z,18.43
2019-02-27T03:27:16.093Z,18.43
2019-02-27T03:28:16.767Z,18.43
2019-02-27T03:29:17.692Z,18.43
2019-02-27T03:30:19.207Z,18.44
2019-02-27T03:31:19.785Z,18.41
2019-02-27T03:32:17.906Z,18.41
2019-02-27T03:33:27.691Z,18.43
2019-02-27T03:34:16.186Z,18.4
2019-02-27T03:35:17.970Z,18.41
2019-02-27T03:36:16.522Z,18.4
2019-02-27T03:37:16.470Z,18.4
2019-02-27T03:38:16.141Z,18.41
2019-02-27T03:39:16.193Z,18.4
2019-02-27T03:40:16.062Z,18.4
2019-02-27T03:41:23.922Z,18.4
2019-02-27T03:42:16.228Z,18.39
2019-02-27T03:43:16.178Z,18.41
2019-02-27T03:44:21.829Z,18.39
2019-02-27T03:45:16.298Z,18.4
2019-02-27T03:46:16.924Z,18.37
2019-02-27T03:47:17.376Z,18.4
2019-02-27T03:48:16.449Z,18.39
2019-02-27T03:49:16.369Z,18.39
2019-02-27T03:50:16.231Z,18.39
2019-02-27T03:51:16.800Z,18.39
2019-02-27T03:52:16.377Z,18.36
2019-02-27T03:53:16.089Z,18.36
2019-02-27T03:54:22.398Z,18.36
2019-02-27T03:55:16.030Z,18.36
2019-02-27T03:56:16.241Z,18.36
2019-02-27T03:57:20.657Z,18.37
2019-02-27T03:58:16.251Z,18.36
2019-02-27T03:59:15.962Z,18.36
2019-02-27T04:00:19.662Z,18.33
2019-02-27T04:01:17.165Z,18.35
2019-02-27T04:02:16.151Z,18.35
2019-02-27T04:03:18.929Z,18.33
2019-02-27T04:04:16.315Z,18.36
2019-02-27T04:05:15.967Z,18.33
2019-02-27T04:06:21.958Z,18.33
2019-02-27T04:07:16.214Z,18.35
2019-02-27T04:08:17.074Z,18.36
2019-02-27T04:09:20.354Z,18.35
2019-02-27T04:10:16.392Z,18.32
2019-02-27T04:11:16.605Z,18.32
2019-02-27T04:12:17.641Z,18.33
2019-02-27T04:13:16.096Z,18.33
2019-02-27T04:14:16.295Z,18.3
2019-02-27T04:15:19.163Z,18.32
2019-02-27T04:16:16.637Z,18.32
2019-02-27T04:17:16.123Z,18.32
2019-02-27T04:18:16.269Z,18.32
2019-02-27T04:19:16.454Z,18.32
2019-02-27T04:20:16.171Z,18.3
2019-02-27T04:21:16.220Z,18.29
2019-02-27T04:22:16.559Z,18.29
2019-02-27T04:23:16.301Z,18.3
2019-02-27T04:24:23.428Z,18.28
2019-02-27T04:25:16.510Z,18.29
2019-02-27T04:26:16.070Z,18.29
2019-02-27T04:27:21.595Z,18.26
2019-02-27T04:28:16.494Z,18.28
2019-02-27T04:29:16.434Z,18.28
2019-02-27T04:30:17.985Z,18.28
2019-02-27T04:31:16.211Z,18.28
2019-02-27T04:32:16.427Z,18.26
2019-02-27T04:33:24.475Z,18.26
2019-02-27T04:34:18.027Z,18.25
2019-02-27T04:35:16.521Z,18.25
2019-02-27T04:36:16.233Z,18.28
2019-02-27T04:37:21.334Z,18.28
2019-02-27T04:38:16.053Z,18.28
2019-02-27T04:39:16.326Z,18.28
2019-02-27T04:40:16.458Z,18.28
2019-02-27T04:41:18.870Z,18.28
2019-02-27T04:42:16.479Z,18.25
2019-02-27T04:43:16.306Z,18.28
2019-02-27T04:44:16.308Z,18.26
2019-02-27T04:45:17.989Z,18.29
2019-02-27T04:46:16.237Z,18.29
2019-02-27T04:47:16.353Z,18.3
2019-02-27T04:48:16.056Z,18.3
2019-02-27T04:49:16.190Z,18.32
2019-02-27T04:50:16.524Z,18.32
2019-02-27T04:51:17.900Z,18.32
2019-02-27T04:52:17.080Z,18.3
2019-02-27T04:53:16.141Z,18.33
2019-02-27T04:54:17.061Z,18.32
2019-02-27T04:55:16.456Z,18.35
2019-02-27T04:56:17.282Z,18.3
2019-02-27T04:57:16.247Z,18.32
2019-02-27T04:58:16.432Z,18.33
2019-02-27T04:59:19.531Z,18.35
2019-02-27T05:00:16.151Z,18.36
2019-02-27T05:01:16.313Z,18.39
2019-02-27T05:02:16.113Z,18.39
2019-02-27T05:03:17.380Z,18.43
2019-02-27T05:04:16.150Z,18.43
2019-02-27T05:05:16.457Z,18.46
2019-02-27T05:06:16.952Z,18.47
2019-02-27T05:07:21.067Z,18.53
2019-02-27T05:08:16.027Z,18.53
2019-02-27T05:09:16.305Z,18.53
2019-02-27T05:10:16.180Z,18.56
2019-02-27T05:11:16.276Z,18.57
2019-02-27T05:12:16.711Z,18.57
2019-02-27T05:13:21.610Z,18.6
2019-02-27T05:14:17.477Z,18.63
2019-02-27T05:15:16.457Z,18.63
2019-02-27T05:16:17.819Z,18.67
2019-02-27T05:17:16.471Z,18.68
2019-02-27T05:18:16.436Z,18.7
2019-02-27T05:19:16.356Z,18.73
2019-02-27T05:20:16.074Z,18.73
2019-02-27T05:21:19.945Z,18.74
2019-02-27T05:22:18.173Z,18.77
2019-02-27T05:23:16.176Z,18.8
2019-02-27T05:24:16.257Z,18.78
2019-02-27T05:25:16.295Z,18.74
2019-02-27T05:26:16.602Z,18.67
2019-02-27T05:27:16.332Z,18.6
2019-02-27T05:28:16.155Z,18.5
2019-02-27T05:29:17.934Z,18.43
2019-02-27T05:30:15.941Z,18.35
2019-02-27T05:31:19.395Z,18.29
2019-02-27T05:32:18.434Z,18.21
2019-02-27T05:33:16.356Z,18.18
2019-02-27T05:34:16.818Z,18.15
2019-02-27T05:35:16.382Z,18.12
2019-02-27T05:36:17.400Z,18.15
2019-02-27T05:37:16.725Z,18.18
2019-02-27T05:38:16.092Z,18.19
2019-02-27T05:39:18.224Z,18.21
2019-02-27T05:40:16.096Z,18.22
2019-02-27T05:41:16.044Z,18.26
2019-02-27T05:42:16.287Z,18.29
2019-02-27T05:43:16.056Z,18.32
2019-02-27T05:44:16.346Z,18.32
2019-02-27T05:45:16.512Z,18.39
2019-02-27T05:46:16.336Z,18.4
2019-02-27T05:47:16.470Z,18.41
2019-02-27T05:48:20.738Z,18.43
2019-02-27T05:49:17.867Z,18.44
2019-02-27T05:50:16.109Z,18.47
2019-02-27T05:51:16.808Z,18.47
2019-02-27T05:52:16.140Z,18.5
2019-02-27T05:53:16.098Z,18.53
2019-02-27T05:54:16.205Z,18.57
2019-02-27T05:55:16.129Z,18.56
2019-02-27T05:56:16.719Z,18.57
2019-02-27T05:57:16.505Z,18.56
2019-02-27T05:58:17.172Z,18.62
2019-02-27T05:59:17.447Z,18.6
2019-02-27T06:00:16.321Z,18.6
2019-02-27T06:01:16.232Z,18.62
2019-02-27T06:02:16.439Z,18.63
2019-02-27T06:03:19.210Z,18.64
2019-02-27T06:04:18.416Z,18.66
2019-02-27T06:05:17.961Z,18.66
2019-02-27T06:06:16.210Z,18.66
2019-02-27T06:07:19.851Z,18.68
2019-02-27T06:08:16.591Z,18.67
2019-02-27T06:09:16.517Z,18.68
2019-02-27T06:10:23.987Z,18.7
2019-02-27T06:11:16.698Z,18.7
2019-02-27T06:12:17.799Z,18.7
2019-02-27T06:13:16.713Z,18.68
2019-02-27T06:14:16.160Z,18.68
2019-02-27T06:15:16.380Z,18.66
2019-02-27T06:16:16.482Z,18.66
2019-02-27T06:17:16.065Z,18.66
2019-02-27T06:18:16.214Z,18.68
2019-02-27T06:19:16.357Z,18.67
2019-02-27T06:20:17.806Z,18.68
2019-02-27T06:21:16.905Z,18.67
2019-02-27T06:22:17.007Z,18.67
2019-02-27T06:23:15.861Z,18.7
2019-02-27T06:24:15.937Z,18.67
2019-02-27T06:25:24.270Z,18.68
2019-02-27T06:26:16.296Z,18.68
2019-02-27T06:27:16.366Z,18.67
2019-02-27T06:28:19.613Z,18.67
2019-02-27T06:29:16.623Z,18.66
2019-02-27T06:30:16.992Z,18.67
2019-02-27T06:31:16.187Z,18.64
2019-02-27T06:32:16.219Z,18.63
2019-02-27T06:33:16.820Z,18.64
2019-02-27T06:34:15.922Z,18.64
2019-02-27T06:35:16.436Z,18.64
2019-02-27T06:36:16.525Z,18.66
2019-02-27T06:37:16.283Z,18.67
2019-02-27T06:38:16.201Z,18.64
2019-02-27T06:39:16.134Z,18.63
2019-02-27T06:40:18.838Z,18.64
2019-02-27T06:41:16.550Z,18.63
2019-02-27T06:42:17.685Z,18.62
2019-02-27T06:43:16.627Z,18.62
2019-02-27T06:44:19.354Z,18.62
2019-02-27T06:45:16.186Z,18.6
2019-02-27T06:46:20.960Z,18.62
2019-02-27T06:47:16.329Z,18.6
2019-02-27T06:48:16.466Z,18.64
2019-02-27T06:49:18.554Z,18.62
2019-02-27T06:50:17.902Z,18.64
2019-02-27T06:51:16.232Z,18.64
2019-02-27T06:52:16.053Z,18.64
2019-02-27T06:53:16.832Z,18.63
2019-02-27T06:54:19.158Z,18.64
2019-02-27T06:55:16.261Z,18.66
2019-02-27T06:56:16.351Z,18.66
2019-02-27T06:57:16.050Z,18.64
2019-02-27T06:58:16.254Z,18.64
2019-02-27T06:59:18.594Z,18.63
2019-02-27T07:00:16.580Z,18.62
2019-02-27T07:01:16.368Z,18.63
2019-02-27T07:02:16.173Z,18.62
2019-02-27T07:03:15.973Z,18.62
2019-02-27T07:04:17.319Z,18.63
2019-02-27T07:05:16.700Z,18.62
2019-02-27T07:06:16.412Z,18.62
2019-02-27T07:07:16.078Z,18.58
2019-02-27T07:08:17.044Z,18.6
2019-02-27T07:09:16.205Z,18.6
2019-02-27T07:10:20.856Z,18.62
2019-02-27T07:11:16.441Z,18.62
2019-02-27T07:12:16.550Z,18.6
2019-02-27T07:13:17.908Z,18.62
2019-02-27T07:14:15.838Z,18.57
2019-02-27T07:15:15.876Z,18.58
2019-02-27T07:16:16.140Z,18.58
2019-02-27T07:17:16.545Z,18.58
2019-02-27T07:18:16.191Z,18.58
2019-02-27T07:19:16.699Z,18.58
2019-02-27T07:20:15.980Z,18.57
2019-02-27T07:21:16.160Z,18.54
2019-02-27T07:22:16.277Z,18.57
2019-02-27T07:23:16.407Z,18.54
2019-02-27T07:24:16.737Z,18.56
2019-02-27T07:25:17.131Z,18.54
2019-02-27T07:26:17.783Z,18.56
2019-02-27T07:27:16.215Z,18.56
2019-02-27T07:28:16.047Z,18.56
2019-02-27T07:29:28.185Z,18.56
2019-02-27T07:30:16.250Z,18.54
2019-02-27T07:31:18.717Z,18.56
2019-02-27T07:32:17.793Z,18.54
2019-02-27T07:33:16.059Z,18.54
2019-02-27T07:34:15.801Z,18.54
2019-02-27T07:35:15.894Z,18.54
2019-02-27T07:36:16.382Z,18.54
2019-02-27T07:37:16.342Z,18.53
2019-02-27T07:38:22.372Z,18.53
2019-02-27T07:39:16.035Z,18.53
2019-02-27T07:40:16.249Z,18.51
2019-02-27T07:41:21.238Z,18.51
2019-02-27T07:42:15.739Z,18.49
2019-02-27T07:43:15.879Z,18.46
2019-02-27T07:44:15.912Z,18.49
2019-02-27T07:45:15.790Z,18.47
2019-02-27T07:46:15.930Z,18.47
2019-02-27T07:47:16.191Z,18.47
2019-02-27T07:48:17.194Z,18.47
2019-02-27T07:49:17.463Z,18.44
2019-02-27T07:50:16.099Z,18.46
2019-02-27T07:51:16.524Z,18.43
2019-02-27T07:52:16.145Z,18.44
2019-02-27T07:53:18.502Z,18.44
2019-02-27T07:54:16.091Z,18.41
2019-02-27T07:55:28.668Z,18.41
2019-02-27T07:56:16.359Z,18.41
2019-02-27T07:57:16.064Z,18.43
2019-02-27T07:58:16.294Z,18.43
2019-02-27T07:59:15.907Z,18.41
2019-02-27T08:00:16.678Z,18.41
2019-02-27T08:01:16.533Z,18.4
2019-02-27T08:02:16.475Z,18.4
2019-02-27T08:03:17.188Z,18.4
2019-02-27T08:04:23.169Z,18.37
2019-02-27T08:05:16.295Z,18.39
2019-02-27T08:06:16.042Z,18.37
2019-02-27T08:07:16.508Z,18.36
2019-02-27T08:08:16.097Z,18.39
2019-02-27T08:09:17.953Z,18.37
2019-02-27T08:10:16.356Z,18.36
2019-02-27T08:11:17.292Z,18.37
2019-02-27T08:12:20.951Z,18.36
2019-02-27T08:13:16.176Z,18.36
2019-02-27T08:14:16.312Z,18.37
2019-02-27T08:15:15.979Z,18.36
2019-02-27T08:16:16.910Z,18.37
2019-02-27T08:17:18.173Z,18.36
2019-02-27T08:18:16.413Z,18.36
2019-02-27T08:19:16.102Z,18.37
2019-02-27T08:20:21.433Z,18.36
2019-02-27T08:21:16.019Z,18.36
2019-02-27T08:22:16.347Z,18.35
2019-02-27T08:23:16.126Z,18.36
2019-02-27T08:24:16.185Z,18.35
2019-02-27T08:25:16.359Z,18.35
2019-02-27T08:26:16.008Z,18.33
2019-02-27T08:27:16.253Z,18.36
2019-02-27T08:28:16.537Z,18.35
2019-02-27T08:29:16.782Z,18.33
2019-02-27T08:30:17.814Z,18.36
2019-02-27T08:31:16.604Z,18.33
2019-02-27T08:32:16.977Z,18.35
2019-02-27T08:33:16.447Z,18.35
2019-02-27T08:34:16.419Z,18.33
2019-02-27T08:35:17.085Z,18.33
2019-02-27T08:36:16.633Z,18.35
2019-02-27T08:37:16.062Z,18.35
2019-02-27T08:38:16.395Z,18.35
2019-02-27T08:39:16.324Z,18.35
2019-02-27T08:40:16.053Z,18.32
2019-02-27T08:41:16.465Z,18.35
2019-02-27T08:42:16.294Z,18.36
2019-02-27T08:43:16.176Z,18.33
2019-02-27T08:44:16.278Z,18.33
2019-02-27T08:45:21.092Z,18.35
2019-02-27T08:46:16.627Z,18.35
2019-02-27T08:47:17.899Z,18.37
2019-02-27T08:48:18.341Z,18.35
2019-02-27T08:49:16.337Z,18.36
2019-02-27T08:50:17.918Z,18.32
2019-02-27T08:51:15.760Z,18.33
2019-02-27T08:52:16.556Z,18.32
2019-02-27T08:53:16.339Z,18.33
2019-02-27T08:54:16.148Z,18.33
2019-02-27T08:55:23.266Z,18.32
2019-02-27T08:56:16.325Z,18.32
2019-02-27T08:57:16.811Z,18.32
2019-02-27T08:58:17.371Z,18.3
2019-02-27T08:59:16.512Z,18.32
2019-02-27T09:00:16.316Z,18.3
2019-02-27T09:01:22.405Z,18.3
2019-02-27T09:02:16.286Z,18.3
2019-02-27T09:03:21.143Z,18.3
2019-02-27T09:04:16.128Z,18.3
2019-02-27T09:05:21.316Z,18.3
2019-02-27T09:06:18.932Z,18.33
2019-02-27T09:07:16.246Z,18.3
2019-02-27T09:08:16.306Z,18.32
2019-02-27T09:09:18.901Z,18.3
2019-02-27T09:10:16.764Z,18.29
2019-02-27T09:11:16.120Z,18.28
2019-02-27T09:12:16.157Z,18.28
2019-02-27T09:13:16.788Z,18.28
2019-02-27T09:14:16.858Z,18.26
2019-02-27T09:15:16.125Z,18.29
2019-02-27T09:16:16.188Z,18.3
2019-02-27T09:17:16.648Z,18.35
2019-02-27T09:18:16.076Z,18.35
2019-02-27T09:19:16.511Z,18.35
2019-02-27T09:20:20.938Z,18.37
2019-02-27T09:21:17.476Z,18.39
2019-02-27T09:22:16.135Z,18.4
2019-02-27T09:23:18.509Z,18.43
2019-02-27T09:24:16.195Z,18.47
2019-02-27T09:25:16.322Z,18.5
2019-02-27T09:26:16.254Z,18.5
2019-02-27T09:27:16.199Z,18.54
2019-02-27T09:28:16.179Z,18.57
2019-02-27T09:29:19.455Z,18.6
2019-02-27T09:30:16.290Z,18.63
2019-02-27T09:31:16.292Z,18.68
2019-02-27T09:32:16.810Z,18.68
2019-02-27T09:33:21.138Z,18.71
2019-02-27T09:34:16.893Z,18.74
2019-02-27T09:35:17.725Z,18.74
2019-02-27T09:36:16.267Z,18.77
2019-02-27T09:37:18.004Z,18.8
2019-02-27T09:38:16.350Z,18.8
2019-02-27T09:39:16.164Z,18.85
2019-02-27T09:40:16.664Z,18.85
2019-02-27T09:41:16.987Z,18.87
2019-02-27T09:42:19.971Z,18.91
2019-02-27T09:43:16.068Z,18.9
2019-02-27T09:44:15.751Z,18.92
2019-02-27T09:45:15.822Z,18.98
2019-02-27T09:46:20.292Z,18.98
2019-02-27T09:47:15.838Z,19.03
2019-02-27T09:48:15.873Z,19.06
2019-02-27T09:49:16.137Z,19.06
2019-02-27T09:50:16.536Z,19.09
2019-02-27T09:51:16.079Z,19.11
2019-02-27T09:52:16.048Z,19.13
2019-02-27T09:53:16.164Z,19.16
2019-02-27T09:54:16.106Z,19.18
2019-02-27T09:55:21.084Z,19.18
2019-02-27T09:56:16.234Z,19.19
2019-02-27T09:57:16.323Z,19.22
2019-02-27T09:58:16.220Z,19.23
2019-02-27T09:59:20.558Z,19.23
2019-02-27T10:00:16.051Z,19.23
2019-02-27T10:01:16.023Z,19.27
2019-02-27T10:02:17.871Z,19.26
2019-02-27T10:03:21.848Z,19.26
2019-02-27T10:04:17.023Z,19.3
2019-02-27T10:05:16.294Z,19.33
2019-02-27T10:06:16.232Z,19.35
2019-02-27T10:07:18.093Z,19.35
2019-02-27T10:08:16.284Z,19.37
2019-02-27T10:09:16.732Z,19.39
2019-02-27T10:10:16.821Z,19.39
2019-02-27T10:11:22.597Z,19.4
2019-02-27T10:12:16.486Z,19.4
2019-02-27T10:13:16.288Z,19.45
2019-02-27T10:14:17.897Z,19.43
2019-02-27T10:15:16.256Z,19.45
2019-02-27T10:16:16.418Z,19.49
2019-02-27T10:17:16.339Z,19.47
2019-02-27T10:18:22.379Z,19.5
2019-02-27T10:19:17.416Z,19.52
2019-02-27T10:20:17.908Z,19.53
2019-02-27T10:21:16.214Z,19.52
2019-02-27T10:22:21.371Z,19.56
2019-02-27T10:23:16.707Z,19.57
2019-02-27T10:24:16.130Z,19.57
2019-02-27T10:25:17.793Z,19.57
2019-02-27T10:26:22.841Z,19.6
2019-02-27T10:27:16.185Z,19.57
2019-02-27T10:28:16.294Z,19.61
2019-02-27T10:29:16.393Z,19.6
2019-02-27T10:30:17.813Z,19.64
2019-02-27T10:31:16.238Z,19.64
2019-02-27T10:32:16.141Z,19.63
2019-02-27T10:33:16.512Z,19.64
2019-02-27T10:34:18.485Z,19.67
2019-02-27T10:35:16.150Z,19.67
2019-02-27T10:36:16.713Z,19.67
2019-02-27T10:37:20.012Z,19.68
2019-02-27T10:38:17.747Z,19.67
2019-02-27T10:39:15.987Z,19.7
2019-02-27T10:40:16.183Z,19.68
2019-02-27T10:41:17.743Z,19.67
2019-02-27T10:42:16.246Z,19.7
2019-02-27T10:43:15.781Z,19.71
2019-02-27T10:44:17.706Z,19.68
2019-02-27T10:45:16.207Z,19.71
2019-02-27T10:46:16.126Z,19.73
2019-02-27T10:47:17.177Z,19.74
2019-02-27T10:48:17.062Z,19.7
2019-02-27T10:49:22.609Z,19.71
2019-02-27T10:50:16.269Z,19.73
2019-02-27T10:51:16.235Z,19.74
2019-02-27T10:52:16.106Z,19.74
2019-02-27T10:53:17.779Z,19.74
2019-02-27T10:54:16.245Z,19.7
2019-02-27T10:55:16.280Z,19.75
2019-02-27T10:56:16.719Z,19.75
2019-02-27T10:57:16.374Z,19.74
2019-02-27T10:58:16.851Z,19.75
2019-02-27T10:59:16.289Z,19.75
2019-02-27T11:00:15.988Z,19.74
2019-02-27T11:01:16.339Z,19.74
2019-02-27T11:02:17.775Z,19.71
2019-02-27T11:03:16.372Z,19.71
2019-02-27T11:04:16.483Z,19.71
2019-02-27T11:05:18.579Z,19.71
2019-02-27T11:06:16.383Z,19.73
2019-02-27T11:07:17.005Z,19.73
2019-02-27T11:08:15.950Z,19.73
2019-02-27T11:09:16.035Z,19.71
2019-02-27T11:10:16.915Z,19.74
2019-02-27T11:11:16.837Z,19.71
2019-02-27T11:12:17.636Z,19.73
2019-02-27T11:13:16.076Z,19.73
2019-02-27T11:14:16.213Z,19.73
2019-02-27T11:15:16.387Z,19.71
2019-02-27T11:16:22.314Z,19.73
2019-02-27T11:17:17.789Z,19.71
2019-02-27T11:18:16.387Z,19.73
2019-02-27T11:19:17.426Z,19.74
2019-02-27T11:20:25.027Z,19.75
2019-02-27T11:21:16.031Z,19.71
2019-02-27T11:22:17.424Z,19.74
2019-02-27T11:23:16.822Z,19.71
2019-02-27T11:24:17.539Z,19.7
2019-02-27T11:25:16.387Z,19.7
2019-02-27T11:26:16.115Z,19.7
2019-02-27T11:27:17.172Z,19.68
2019-02-27T11:28:16.133Z,19.71
2019-02-27T11:29:16.367Z,19.7
2019-02-27T11:30:16.092Z,19.7
2019-02-27T11:31:17.754Z,19.7
2019-02-27T11:32:16.950Z,19.7
2019-02-27T11:33:26.353Z,19.73
2019-02-27T11:34:16.909Z,19.73
2019-02-27T11:35:16.141Z,19.73
2019-02-27T11:36:16.315Z,19.74
2019-02-27T11:37:17.537Z,19.71
2019-02-27T11:38:16.211Z,19.71
2019-02-27T11:39:16.417Z,19.73
2019-02-27T11:40:16.021Z,19.71
2019-02-27T11:41:16.150Z,19.73
2019-02-27T11:42:15.795Z,19.74
2019-02-27T11:43:17.476Z,19.73
2019-02-27T11:44:16.237Z,19.75
2019-02-27T11:45:16.256Z,19.74
2019-02-27T11:46:16.246Z,19.75
2019-02-27T11:47:16.102Z,19.75
2019-02-27T11:48:15.918Z,19.74
2019-02-27T11:49:16.413Z,19.75
2019-02-27T11:50:18.941Z,19.75
2019-02-27T11:51:21.085Z,19.75
2019-02-27T11:52:16.182Z,19.75
2019-02-27T11:53:16.056Z,19.75
2019-02-27T11:54:16.135Z,19.78
2019-02-27T11:55:17.035Z,19.78
2019-02-27T11:56:16.173Z,19.8
2019-02-27T11:57:16.020Z,19.77
2019-02-27T11:58:16.557Z,19.77
2019-02-27T11:59:17.000Z,19.74
2019-02-27T12:00:21.472Z,19.75
2019-02-27T12:01:16.065Z,19.75
2019-02-27T12:02:16.355Z,19.75
2019-02-27T12:03:16.121Z,19.74
2019-02-27T12:04:20.267Z,19.74
2019-02-27T12:05:16.097Z,19.73
2019-02-27T12:06:15.742Z,19.74
2019-02-27T12:07:18.168Z,19.74
2019-02-27T12:08:16.897Z,19.71
2019-02-27T12:09:15.700Z,19.73
2019-02-27T12:10:16.027Z,19.74
2019-02-27T12:11:17.817Z,19.73
2019-02-27T12:12:16.733Z,19.73
2019-02-27T12:13:15.954Z,19.73
2019-02-27T12:14:16.486Z,19.74
2019-02-27T12:15:15.745Z,19.74
2019-02-27T12:16:18.741Z,19.75
2019-02-27T12:17:16.641Z,19.75
2019-02-27T12:18:16.283Z,19.74
2019-02-27T12:19:16.930Z,19.75
2019-02-27T12:20:19.047Z,19.75
2019-02-27T12:21:16.715Z,19.74
2019-02-27T12:22:16.410Z,19.74
2019-02-27T12:23:16.082Z,19.74
2019-02-27T12:24:19.772Z,19.73
2019-02-27T12:25:15.973Z,19.74
2019-02-27T12:26:16.538Z,19.71
2019-02-27T12:27:50.192Z,19.75
2019-02-27T12:28:18.513Z,19.73
2019-02-27T12:29:16.347Z,19.71
2019-02-27T12:30:15.735Z,19.71
2019-02-27T12:31:15.884Z,19.7
2019-02-27T12:32:16.043Z,19.71
2019-02-27T12:33:15.986Z,19.7
2019-02-27T12:34:17.799Z,19.7
2019-02-27T12:35:16.022Z,19.7
2019-02-27T12:36:19.686Z,19.68
2019-02-27T12:37:35.035Z,19.7
2019-02-27T12:38:16.944Z,19.67
2019-02-27T12:39:18.892Z,19.68
2019-02-27T12:40:16.567Z,19.67
2019-02-27T12:41:16.454Z,19.68
2019-02-27T12:42:16.032Z,19.65
2019-02-27T12:43:18.798Z,19.65
2019-02-27T12:44:15.958Z,19.67
2019-02-27T12:45:17.869Z,19.64
2019-02-27T12:46:16.368Z,19.64
2019-02-27T12:47:15.980Z,19.65
2019-02-27T12:48:16.674Z,19.64
2019-02-27T12:49:21.110Z,19.67
2019-02-27T12:50:16.218Z,19.65
2019-02-27T12:51:15.894Z,19.64
2019-02-27T12:52:16.258Z,19.64
2019-02-27T12:53:21.946Z,19.65
2019-02-27T12:54:15.920Z,19.65
2019-02-27T12:55:15.785Z,19.63